Time;durP1;ratioP1;P1;durP2;ratioP2;P2;SDS_P1;SDS_P2;PMS_P1;PMS_P2;Temp;Humidity;BMP_temperature;BMP_pressure;BME280_temperature;BME280_humidity;BME280_pressure;Samples;Min_cycle;Max_cycle;Signal;HPM_P1;HPM_P2
2023/05/31 00:00:35;;;;;;;10.30;4.70;;;13.60;99.90;;;;;;2104860;28;20415;-71
2023/05/31 00:01:35;;;;;;;8.40;5.00;;;13.60;99.90;;;;;;2111856;28;20054;-70
2023/05/31 00:02:36;;;;;;;7.63;5.03;;;13.60;99.90;;;;;;2113711;28;20028;-70
2023/05/31 00:03:40;;;;;;;11.07;5.25;;;13.60;99.90;;;;;;2113618;28;20118;-71
2023/05/31 00:04:41;;;;;;;8.70;5.30;;;13.60;99.90;;;;;;2113792;28;20049;-70
2023/05/31 00:05:41;;;;;;;11.35;5.53;;;13.60;99.90;;;;;;2104403;28;20082;-70
2023/05/31 00:06:42;;;;;;;7.53;5.03;;;13.50;99.90;;;;;;2094278;28;20032;-70
2023/05/31 00:07:42;;;;;;;6.40;4.70;;;13.50;99.90;;;;;;2101773;28;20020;-71
2023/05/31 00:08:43;;;;;;;9.77;5.03;;;13.50;99.90;;;;;;2111293;28;20119;-70
2023/05/31 00:09:43;;;;;;;8.25;4.93;;;13.50;99.90;;;;;;2113495;28;20122;-71
2023/05/31 00:10:44;;;;;;;11.00;5.18;;;13.50;99.90;;;;;;2113637;28;20028;-71
2023/05/31 00:11:45;;;;;;;8.43;5.30;;;13.50;99.90;;;;;;2111644;28;20027;-71
2023/05/31 00:12:45;;;;;;;8.77;4.97;;;13.40;99.90;;;;;;2113761;28;20030;-71
2023/05/31 00:13:46;;;;;;;8.05;4.93;;;13.40;99.90;;;;;;2113479;28;20031;-70
2023/05/31 00:14:46;;;;;;;9.88;5.30;;;13.40;99.90;;;;;;2113643;28;20027;-71
2023/05/31 00:15:47;;;;;;;8.50;5.00;;;13.40;99.90;;;;;;2113398;28;20114;-71
2023/05/31 00:16:47;;;;;;;8.27;5.15;;;13.30;99.90;;;;;;2111804;28;20033;-71
2023/05/31 00:17:48;;;;;;;8.52;5.07;;;13.30;99.90;;;;;;2104417;28;20472;-71
2023/05/31 00:18:49;;;;;;;7.63;4.85;;;13.30;99.90;;;;;;2095967;28;20497;-72
2023/05/31 00:19:50;;;;;;;6.60;4.72;;;13.30;99.90;;;;;;2104353;28;20079;-71
2023/05/31 00:20:50;;;;;;;8.27;4.80;;;13.30;99.90;;;;;;2104632;28;20039;-72
2023/05/31 00:21:51;;;;;;;7.57;4.80;;;13.30;99.90;;;;;;2102544;28;20024;-72
2023/05/31 00:22:51;;;;;;;8.60;4.85;;;13.30;99.90;;;;;;2113677;28;20032;-72
2023/05/31 00:23:52;;;;;;;7.28;4.60;;;13.30;99.90;;;;;;2113395;28;20023;-71
2023/05/31 00:24:53;;;;;;;9.35;5.05;;;13.30;99.90;;;;;;2104660;28;20081;-71
2023/05/31 00:25:53;;;;;;;9.40;4.90;;;13.20;99.90;;;;;;2104235;28;20032;-71
2023/05/31 00:26:54;;;;;;;7.47;4.90;;;13.20;99.90;;;;;;2111636;28;20112;-72
2023/05/31 00:27:55;;;;;;;10.25;5.10;;;13.20;99.90;;;;;;2104413;28;20034;-72
2023/05/31 00:28:55;;;;;;;8.25;5.30;;;13.20;99.90;;;;;;2104489;28;20025;-71
2023/05/31 00:29:56;;;;;;;8.23;5.13;;;13.20;99.90;;;;;;2113400;28;20524;-71
2023/05/31 00:30:57;;;;;;;7.63;4.80;;;13.20;99.90;;;;;;2104625;28;20047;-72
2023/05/31 00:31:57;;;;;;;8.02;5.07;;;13.10;99.90;;;;;;2102603;28;20028;-71
2023/05/31 00:32:58;;;;;;;8.18;5.30;;;13.10;99.90;;;;;;2104362;28;20043;-71
2023/05/31 00:33:58;;;;;;;8.60;5.43;;;13.10;99.90;;;;;;2104413;28;20090;-72
2023/05/31 00:34:59;;;;;;;10.52;5.50;;;13.10;99.90;;;;;;2095994;28;20040;-72
2023/05/31 00:35:59;;;;;;;10.10;5.10;;;13.00;99.90;;;;;;2095931;28;20032;-71
2023/05/31 00:37:00;;;;;;;12.23;5.65;;;13.00;99.90;;;;;;2096372;28;20754;-70
2023/05/31 00:38:05;;;;;;;9.65;5.30;;;13.00;99.90;;;;;;2096100;28;20620;-70
2023/05/31 00:39:06;;;;;;;8.48;5.07;;;13.00;99.90;;;;;;2103936;28;20040;-71
2023/05/31 00:40:07;;;;;;;11.30;5.30;;;13.00;99.90;;;;;;2104353;28;20487;-70
2023/05/31 00:41:09;;;;;;;7.93;5.00;;;13.00;99.90;;;;;;2113386;28;20035;-71
2023/05/31 00:42:10;;;;;;;10.05;5.20;;;12.90;99.90;;;;;;2111406;28;20044;-70
2023/05/31 00:43:11;;;;;;;8.60;5.10;;;12.90;99.90;;;;;;2113366;28;20030;-70
2023/05/31 00:44:11;;;;;;;9.23;4.97;;;12.90;99.90;;;;;;2113505;28;20039;-70
2023/05/31 00:45:12;;;;;;;9.27;5.38;;;12.90;99.90;;;;;;2113456;28;20016;-71
2023/05/31 00:46:26;;;;;;;7.50;4.90;;;12.90;99.90;;;;;;2104296;28;20058;-71
2023/05/31 00:47:28;;;;;;;6.97;4.82;;;12.90;99.90;;;;;;2104519;28;20511;-71
2023/05/31 00:48:29;;;;;;;9.30;5.07;;;12.90;99.90;;;;;;2104002;28;20050;-71
2023/05/31 00:49:30;;;;;;;9.02;5.03;;;12.80;99.90;;;;;;2104384;28;20107;-71
2023/05/31 00:50:31;;;;;;;10.27;5.20;;;12.80;99.90;;;;;;2113260;28;20403;-71
2023/05/31 00:51:32;;;;;;;7.05;4.80;;;12.80;99.90;;;;;;2111542;28;20059;-70
2023/05/31 00:52:34;;;;;;;7.22;5.05;;;12.80;99.90;;;;;;2113243;28;20027;-71
2023/05/31 00:53:35;;;;;;;8.50;5.25;;;12.70;99.90;;;;;;2112720;28;20425;-71
2023/05/31 00:54:36;;;;;;;7.82;4.53;;;12.70;99.90;;;;;;2113200;28;20024;-71
2023/05/31 00:55:37;;;;;;;8.88;4.90;;;12.70;99.90;;;;;;2113197;28;20031;-71
2023/05/31 00:56:39;;;;;;;6.82;4.50;;;12.70;99.90;;;;;;2111348;28;20030;-71
2023/05/31 00:57:41;;;;;;;6.85;4.93;;;12.70;99.90;;;;;;2113475;28;20024;-71
2023/05/31 00:58:42;;;;;;;8.10;4.55;;;12.70;99.90;;;;;;2113084;28;20240;-70
2023/05/31 00:59:43;;;;;;;7.90;4.65;;;12.70;99.90;;;;;;2103977;28;20043;-71
2023/05/31 01:00:44;;;;;;;7.40;4.88;;;12.70;99.90;;;;;;2104113;28;20180;-71
2023/05/31 01:01:45;;;;;;;6.72;4.53;;;12.60;99.90;;;;;;2111395;28;20027;-71
2023/05/31 01:02:51;;;;;;;9.27;4.88;;;12.60;99.90;;;;;;2095660;28;20070;-71
2023/05/31 01:03:55;;;;;;;9.52;4.90;;;12.60;99.90;;;;;;2096093;28;20028;-70
2023/05/31 01:04:56;;;;;;;7.80;4.70;;;12.50;99.90;;;;;;2103770;28;20024;-70
2023/05/31 01:05:57;;;;;;;7.60;4.78;;;12.60;99.90;;;;;;2104321;28;20024;-70
2023/05/31 01:07:00;;;;;;;7.47;4.63;;;12.50;99.90;;;;;;2111175;28;20042;-71
2023/05/31 01:08:02;;;;;;;7.88;4.60;;;12.50;99.90;;;;;;2108418;28;20700;-70
2023/05/31 01:09:04;;;;;;;6.03;4.60;;;12.50;99.90;;;;;;2113034;28;20180;-71
2023/05/31 01:10:06;;;;;;;5.88;4.50;;;12.50;99.90;;;;;;2113088;28;20035;-71
2023/05/31 01:11:29;;;;;;;7.32;4.63;;;12.50;99.90;;;;;;2103880;28;20521;-72
2023/05/31 01:12:55;;;;;;;8.50;4.57;;;12.50;99.90;;;;;;2090393;28;20032;-71
2023/05/31 01:14:08;;;;;;;8.20;4.70;;;12.40;99.90;;;;;;2096251;28;20074;-71
2023/05/31 01:15:24;;;;;;;8.82;4.50;;;12.40;99.90;;;;;;2105027;28;20032;-72
2023/05/31 01:16:52;;;;;;;7.75;4.63;;;12.50;99.90;;;;;;2107827;28;20035;-71
2023/05/31 01:18:02;;;;;;;6.93;4.75;;;12.40;99.90;;;;;;2099062;28;20039;-71
2023/05/31 01:19:07;;;;;;;6.70;4.40;;;12.40;99.90;;;;;;2099045;28;20024;-71
2023/05/31 01:20:13;;;;;;;6.75;4.72;;;12.40;99.90;;;;;;2112942;28;20085;-71
2023/05/31 01:21:16;;;;;;;7.45;4.45;;;12.40;99.90;;;;;;2095407;28;20028;-71
2023/05/31 01:22:38;;;;;;;5.75;4.40;;;12.40;99.90;;;;;;2096087;28;20106;-71
2023/05/31 01:24:09;;;;;;;5.70;4.10;;;12.30;99.90;;;;;;2106478;28;20482;-71
2023/05/31 01:25:28;;;;;;;6.80;4.50;;;12.30;99.90;;;;;;2070681;28;20241;-71
2023/05/31 01:26:49;;;;;;;5.55;3.92;;;12.30;99.90;;;;;;2111362;28;20131;-70
2023/05/31 01:27:50;;;;;;;7.60;4.32;;;12.30;99.90;;;;;;2113067;28;20478;-70
2023/05/31 01:28:55;;;;;;;7.55;4.50;;;12.30;99.90;;;;;;2112926;28;20039;-70
2023/05/31 01:30:00;;;;;;;6.07;4.68;;;12.30;99.90;;;;;;2108992;28;20036;-70
2023/05/31 01:31:04;;;;;;;7.18;4.57;;;12.30;99.90;;;;;;2103750;28;20043;-70
2023/05/31 01:32:05;;;;;;;7.63;4.70;;;12.20;99.90;;;;;;2109325;27;20059;-70
2023/05/31 01:33:12;;;;;;;8.40;4.70;;;12.20;99.90;;;;;;2104122;28;20043;-70
2023/05/31 01:34:13;;;;;;;9.02;4.30;;;12.20;99.90;;;;;;2096076;28;20079;-70
2023/05/31 01:35:14;;;;;;;6.07;4.22;;;12.10;99.90;;;;;;2095361;28;20396;-71
2023/05/31 01:36:14;;;;;;;6.05;4.45;;;12.20;99.90;;;;;;2103231;28;20032;-71
2023/05/31 01:37:17;;;;;;;7.80;4.47;;;12.20;99.90;;;;;;2104657;28;20102;-71
2023/05/31 01:38:17;;;;;;;8.10;4.15;;;12.20;99.90;;;;;;2101092;28;20187;-71
2023/05/31 01:39:19;;;;;;;10.13;5.00;;;12.10;99.90;;;;;;2103774;28;20043;-72
2023/05/31 01:40:20;;;;;;;7.05;4.30;;;12.10;99.90;;;;;;2113004;28;20110;-70
2023/05/31 01:41:24;;;;;;;8.13;4.88;;;12.10;99.90;;;;;;2101942;28;20071;-70
2023/05/31 01:42:26;;;;;;;6.45;4.20;;;12.00;99.90;;;;;;2104344;28;20062;-71
2023/05/31 01:43:27;;;;;;;7.38;4.50;;;12.00;99.90;;;;;;2112833;28;20080;-70
2023/05/31 01:44:29;;;;;;;7.60;4.60;;;12.00;99.90;;;;;;2103644;28;20080;-70
2023/05/31 01:45:31;;;;;;;6.85;4.53;;;12.00;99.90;;;;;;2103558;28;20024;-70
2023/05/31 01:46:32;;;;;;;7.60;4.45;;;12.00;99.90;;;;;;2108387;28;20236;-70
2023/05/31 01:47:34;;;;;;;6.80;4.43;;;12.00;99.90;;;;;;2097805;28;20100;-71
2023/05/31 01:48:34;;;;;;;6.53;4.57;;;11.90;99.90;;;;;;2095315;28;20162;-71
2023/05/31 01:49:37;;;;;;;10.07;4.90;;;11.90;99.90;;;;;;2095432;28;20024;-70
2023/05/31 01:50:39;;;;;;;6.50;4.63;;;11.90;99.90;;;;;;2087500;28;20025;-73
2023/05/31 01:51:44;;;;;;;5.68;4.35;;;11.90;99.90;;;;;;2097239;28;20027;-70
2023/05/31 01:52:45;;;;;;;7.53;4.60;;;11.80;99.90;;;;;;2104285;28;20126;-70
2023/05/31 01:53:47;;;;;;;6.53;4.30;;;11.80;99.90;;;;;;2095924;28;20032;-70
2023/05/31 01:54:48;;;;;;;6.88;4.35;;;11.80;99.90;;;;;;2095261;28;20036;-71
2023/05/31 01:55:49;;;;;;;7.13;4.40;;;11.80;99.90;;;;;;2103653;28;20059;-70
2023/05/31 01:56:50;;;;;;;6.63;4.22;;;11.80;99.90;;;;;;2105837;28;20027;-70
2023/05/31 01:57:52;;;;;;;6.25;4.45;;;11.80;99.90;;;;;;2103165;28;20115;-71
2023/05/31 01:58:54;;;;;;;7.38;4.50;;;11.80;99.90;;;;;;2103382;28;20127;-70
2023/05/31 01:59:57;;;;;;;6.72;4.65;;;11.80;99.90;;;;;;2095280;28;20155;-71
2023/05/31 02:00:59;;;;;;;7.32;4.70;;;11.70;99.90;;;;;;2095428;28;20424;-70
2023/05/31 02:02:00;;;;;;;7.75;4.60;;;11.70;99.90;;;;;;2095406;28;20017;-70
2023/05/31 02:03:04;;;;;;;5.85;4.40;;;11.70;99.90;;;;;;2095071;28;20025;-70
2023/05/31 02:04:04;;;;;;;7.22;4.50;;;11.60;99.90;;;;;;2095385;28;20582;-71
2023/05/31 02:05:11;;;;;;;7.90;4.78;;;11.70;99.90;;;;;;2094296;28;20099;-70
2023/05/31 02:06:12;;;;;;;8.23;4.65;;;11.70;99.90;;;;;;2090147;28;20595;-71
2023/05/31 02:07:13;;;;;;;9.68;4.90;;;11.70;99.90;;;;;;2101567;28;20032;-71
2023/05/31 02:08:15;;;;;;;6.68;4.57;;;11.70;99.90;;;;;;2099100;28;20027;-71
2023/05/31 02:09:16;;;;;;;7.22;4.53;;;11.70;99.90;;;;;;2095062;28;20523;-71
2023/05/31 02:10:16;;;;;;;9.35;4.75;;;11.60;99.90;;;;;;2103741;28;20024;-71
2023/05/31 02:11:17;;;;;;;7.25;4.85;;;11.60;99.90;;;;;;2101771;28;20030;-71
2023/05/31 02:12:18;;;;;;;8.65;4.85;;;11.60;99.90;;;;;;2112128;28;20057;-70
2023/05/31 02:13:23;;;;;;;6.85;4.65;;;11.60;99.90;;;;;;2103904;28;20050;-71
2023/05/31 02:14:23;;;;;;;7.18;4.75;;;11.60;99.90;;;;;;2095186;28;20028;-71
2023/05/31 02:15:24;;;;;;;9.88;4.97;;;11.60;99.90;;;;;;2095255;28;20109;-71
2023/05/31 02:16:25;;;;;;;7.82;4.80;;;11.60;99.90;;;;;;2112105;27;20039;-71
2023/05/31 02:17:25;;;;;;;6.40;4.50;;;11.60;99.90;;;;;;2121218;27;20029;-71
2023/05/31 02:18:26;;;;;;;8.52;4.97;;;11.60;99.90;;;;;;2112809;27;20118;-71
2023/05/31 02:19:28;;;;;;;7.13;4.90;;;11.60;99.90;;;;;;2103493;28;20055;-71
2023/05/31 02:20:30;;;;;;;7.57;4.72;;;11.60;99.90;;;;;;2095381;28;20855;-71
2023/05/31 02:21:35;;;;;;;10.07;5.22;;;11.50;99.90;;;;;;2093311;28;20028;-71
2023/05/31 02:22:35;;;;;;;7.78;4.93;;;11.60;99.90;;;;;;2095868;28;20033;-71
2023/05/31 02:23:37;;;;;;;8.82;5.15;;;11.50;99.90;;;;;;2111914;28;20028;-71
2023/05/31 02:24:37;;;;;;;7.07;5.00;;;11.50;99.90;;;;;;2103420;28;20032;-70
2023/05/31 02:25:38;;;;;;;7.97;4.90;;;11.40;99.90;;;;;;2103482;28;20046;-71
2023/05/31 02:26:39;;;;;;;8.95;5.00;;;11.40;99.90;;;;;;2107350;28;20012;-71
2023/05/31 02:27:41;;;;;;;10.13;5.47;;;11.40;99.90;;;;;;2106985;28;20024;-71
2023/05/31 02:28:41;;;;;;;10.07;5.20;;;11.50;99.90;;;;;;2112453;28;20612;-71
2023/05/31 02:29:47;;;;;;;9.80;5.22;;;11.50;99.90;;;;;;2103306;28;20699;-71
2023/05/31 02:30:54;;;;;;;7.22;5.10;;;11.40;99.90;;;;;;2095326;28;20032;-71
2023/05/31 02:31:55;;;;;;;7.72;5.13;;;11.40;99.90;;;;;;2099351;28;20067;-70
2023/05/31 02:32:55;;;;;;;10.20;5.40;;;11.40;99.90;;;;;;2095515;28;20527;-71
2023/05/31 02:33:56;;;;;;;9.00;5.35;;;11.40;99.90;;;;;;2094985;28;20035;-70
2023/05/31 02:34:56;;;;;;;9.25;5.35;;;11.40;99.90;;;;;;2099283;28;20028;-70
2023/05/31 02:35:58;;;;;;;7.28;4.95;;;11.40;99.90;;;;;;2112451;28;20048;-71
2023/05/31 02:37:00;;;;;;;8.60;4.75;;;11.40;99.90;;;;;;2107481;28;20580;-71
2023/05/31 02:38:01;;;;;;;10.27;5.20;;;11.40;99.90;;;;;;2095058;28;20037;-71
2023/05/31 02:39:02;;;;;;;7.43;4.82;;;11.30;99.90;;;;;;2094278;28;20462;-71
2023/05/31 02:40:09;;;;;;;9.63;6.22;;;11.30;99.90;;;;;;2102856;28;20052;-71
2023/05/31 02:41:09;;;;;;;7.18;5.43;;;11.30;99.90;;;;;;2103399;28;20032;-71
2023/05/31 02:42:12;;;;;;;6.43;5.00;;;11.30;99.90;;;;;;2101967;28;20024;-70
2023/05/31 02:43:13;;;;;;;8.15;5.30;;;11.30;99.90;;;;;;2112316;28;20107;-70
2023/05/31 02:44:14;;;;;;;7.20;5.10;;;11.30;99.90;;;;;;2112756;28;20024;-71
2023/05/31 02:45:14;;;;;;;9.20;5.00;;;11.30;99.90;;;;;;2112328;28;20055;-70
2023/05/31 02:46:15;;;;;;;7.78;5.18;;;11.30;99.90;;;;;;2101599;28;20507;-70
2023/05/31 02:47:17;;;;;;;7.13;4.55;;;11.20;99.90;;;;;;2095364;28;20036;-70
2023/05/31 02:48:18;;;;;;;9.40;5.07;;;11.20;99.90;;;;;;2094895;28;20071;-70
2023/05/31 02:49:19;;;;;;;8.43;5.20;;;11.20;99.90;;;;;;2103220;28;20059;-70
2023/05/31 02:50:19;;;;;;;8.73;5.22;;;11.20;99.90;;;;;;2103564;28;20032;-70
2023/05/31 02:51:30;;;;;;;9.60;4.95;;;11.20;99.90;;;;;;2087221;28;20707;-70
2023/05/31 02:53:05;;;;;;;7.35;4.70;;;11.20;99.90;;;;;;2107826;28;20521;-69
2023/05/31 02:54:12;;;;;;;8.60;4.93;;;11.20;99.90;;;;;;2103720;28;20043;-69
2023/05/31 02:55:13;;;;;;;8.48;4.90;;;11.20;99.90;;;;;;2095065;28;20032;-71
2023/05/31 02:56:32;;;;;;;8.20;4.63;;;11.20;99.90;;;;;;2101749;28;20060;-71
2023/05/31 02:57:43;;;;;;;7.82;4.65;;;11.10;99.90;;;;;;2099193;28;20032;-71
2023/05/31 02:58:44;;;;;;;7.45;4.95;;;11.10;99.90;;;;;;2094902;28;20059;-71
2023/05/31 03:00:13;;;;;;;7.80;5.07;;;11.20;99.90;;;;;;2089097;28;20044;-71
2023/05/31 03:01:14;;;;;;;8.60;4.38;;;11.10;99.90;;;;;;2088319;28;20044;-71
2023/05/31 03:02:25;;;;;;;9.65;4.88;;;11.10;99.90;;;;;;2089495;28;20770;-71
2023/05/31 03:03:33;;;;;;;8.77;4.97;;;11.10;99.90;;;;;;2087834;28;20029;-72
2023/05/31 03:04:41;;;;;;;6.93;4.65;;;11.10;99.90;;;;;;2087458;28;20184;-71
2023/05/31 03:05:43;;;;;;;7.35;4.85;;;11.10;99.90;;;;;;2089222;28;20108;-72
2023/05/31 03:06:44;;;;;;;7.35;4.40;;;11.10;99.90;;;;;;2089199;28;20032;-71
2023/05/31 03:07:44;;;;;;;6.75;4.72;;;11.10;99.90;;;;;;2100504;28;20116;-71
2023/05/31 03:08:46;;;;;;;7.85;4.80;;;11.10;99.90;;;;;;2112328;28;20027;-71
2023/05/31 03:09:47;;;;;;;8.15;4.72;;;11.10;99.90;;;;;;2103095;28;20062;-71
2023/05/31 03:10:48;;;;;;;8.75;4.88;;;11.10;99.90;;;;;;2086678;28;20032;-71
2023/05/31 03:11:49;;;;;;;6.93;4.40;;;11.10;99.90;;;;;;2084848;28;20032;-71
2023/05/31 03:12:51;;;;;;;7.63;4.80;;;11.10;99.90;;;;;;2086868;28;20029;-71
2023/05/31 03:13:52;;;;;;;8.57;5.20;;;11.10;99.90;;;;;;2102571;28;20128;-71
2023/05/31 03:14:54;;;;;;;7.55;4.63;;;11.10;99.90;;;;;;2102711;28;20032;-71
2023/05/31 03:15:54;;;;;;;6.57;4.63;;;11.10;99.90;;;;;;2094700;28;20121;-71
2023/05/31 03:16:55;;;;;;;7.65;4.70;;;11.10;99.90;;;;;;2101901;28;20035;-71
2023/05/31 03:17:56;;;;;;;9.48;4.80;;;11.10;99.90;;;;;;2096409;28;20035;-71
2023/05/31 03:18:57;;;;;;;8.88;4.90;;;11.10;99.90;;;;;;2096764;28;20107;-71
2023/05/31 03:19:57;;;;;;;6.25;4.68;;;11.10;99.90;;;;;;2104353;28;20028;-71
2023/05/31 03:20:58;;;;;;;8.48;4.65;;;11.10;99.90;;;;;;2104944;28;20127;-71
2023/05/31 03:21:59;;;;;;;8.45;4.97;;;11.10;99.90;;;;;;2094613;28;20051;-72
2023/05/31 03:23:04;;;;;;;9.25;5.18;;;11.10;99.90;;;;;;2097401;28;20031;-78
2023/05/31 03:24:05;;;;;;;8.85;5.05;;;11.10;99.90;;;;;;2097645;28;20032;-79
2023/05/31 03:25:06;;;;;;;6.45;4.75;;;11.10;99.90;;;;;;2105272;28;20024;-74
2023/05/31 03:26:07;;;;;;;9.50;4.90;;;11.10;99.90;;;;;;2096554;28;20024;-73
2023/05/31 03:27:08;;;;;;;6.97;4.57;;;11.10;99.90;;;;;;2095924;28;20635;-78
2023/05/31 03:28:09;;;;;;;7.97;4.85;;;11.10;99.90;;;;;;2106329;28;20031;-79
2023/05/31 03:29:10;;;;;;;8.77;4.72;;;11.10;99.90;;;;;;2106174;28;20024;-78
2023/05/31 03:30:11;;;;;;;8.25;4.60;;;11.10;99.90;;;;;;2107562;28;20024;-78
2023/05/31 03:31:20;;;;;;;8.68;4.72;;;11.10;99.90;;;;;;2103812;28;20020;-78
2023/05/31 03:32:21;;;;;;;7.20;4.60;;;11.20;99.90;;;;;;2097380;28;20055;-77
2023/05/31 03:33:22;;;;;;;7.63;4.88;;;11.10;99.90;;;;;;2105701;28;20015;-78
2023/05/31 03:34:24;;;;;;;7.22;4.88;;;11.10;99.90;;;;;;2115110;28;20776;-78
2023/05/31 03:35:25;;;;;;;7.93;5.15;;;11.20;99.90;;;;;;2105032;28;20031;-78
2023/05/31 03:36:25;;;;;;;7.32;5.03;;;11.20;99.90;;;;;;2096055;28;20493;-78
2023/05/31 03:37:26;;;;;;;8.70;4.88;;;11.20;99.90;;;;;;2104894;28;20116;-79
2023/05/31 03:38:40;;;;;;;7.00;4.65;;;11.20;99.90;;;;;;2098540;28;20432;-79
2023/05/31 03:39:40;;;;;;;8.65;4.70;;;11.20;99.90;;;;;;2104190;28;20050;-79
2023/05/31 03:40:44;;;;;;;8.18;5.30;;;11.20;99.90;;;;;;2096831;28;20415;-78
2023/05/31 03:41:44;;;;;;;9.27;4.85;;;11.20;99.90;;;;;;2094634;28;20028;-78
2023/05/31 03:42:45;;;;;;;8.40;4.97;;;11.20;99.90;;;;;;2104957;28;20032;-77
2023/05/31 03:43:45;;;;;;;7.50;5.10;;;11.20;99.90;;;;;;2105003;28;20122;-78
2023/05/31 03:44:46;;;;;;;10.20;5.35;;;11.20;99.90;;;;;;2096471;28;20032;-77
2023/05/31 03:45:47;;;;;;;8.73;4.90;;;11.20;99.90;;;;;;2096287;28;20101;-77
2023/05/31 03:46:48;;;;;;;8.13;4.78;;;11.30;99.90;;;;;;2098556;28;20052;-79
2023/05/31 03:47:48;;;;;;;7.50;4.40;;;11.30;99.90;;;;;;2096486;28;20036;-78
2023/05/31 03:48:50;;;;;;;6.90;4.55;;;11.30;99.90;;;;;;2095978;28;20084;-78
2023/05/31 03:49:52;;;;;;;7.25;4.78;;;11.20;99.90;;;;;;2104841;28;20024;-79
2023/05/31 03:50:52;;;;;;;10.45;4.93;;;11.30;99.90;;;;;;2104755;28;20785;-78
2023/05/31 03:51:53;;;;;;;7.18;5.00;;;11.30;99.90;;;;;;2094520;28;20037;-78
2023/05/31 03:52:54;;;;;;;8.30;4.70;;;11.30;99.90;;;;;;2104703;28;20036;-78
2023/05/31 03:53:54;;;;;;;8.55;4.93;;;11.30;99.90;;;;;;2113891;28;20040;-79
2023/05/31 03:54:55;;;;;;;6.60;4.53;;;11.30;99.90;;;;;;2104702;28;20032;-78
2023/05/31 03:55:55;;;;;;;6.32;4.35;;;11.40;99.90;;;;;;2104842;28;20043;-78
2023/05/31 03:56:56;;;;;;;9.40;4.85;;;11.40;99.90;;;;;;2108671;28;20027;-78
2023/05/31 03:57:56;;;;;;;7.95;5.15;;;11.40;99.90;;;;;;2122435;27;20059;-77
2023/05/31 03:58:57;;;;;;;7.60;4.80;;;11.40;99.90;;;;;;2096934;28;20035;-78
2023/05/31 03:59:59;;;;;;;7.72;4.70;;;11.40;99.90;;;;;;2095992;28;20052;-78
2023/05/31 04:01:00;;;;;;;6.93;4.80;;;11.50;99.90;;;;;;2096628;28;20095;-78
2023/05/31 04:02:03;;;;;;;7.55;4.90;;;11.50;99.90;;;;;;2094198;28;20582;-78
2023/05/31 04:03:03;;;;;;;7.65;4.88;;;11.50;99.90;;;;;;2104384;28;20708;-78
2023/05/31 04:04:04;;;;;;;8.05;4.70;;;11.60;99.90;;;;;;2104494;28;20024;-78
2023/05/31 04:05:06;;;;;;;7.95;4.57;;;11.70;99.90;;;;;;2096128;28;20056;-78
2023/05/31 04:06:06;;;;;;;7.10;4.68;;;11.80;99.90;;;;;;2104496;28;20063;-78
2023/05/31 04:07:08;;;;;;;7.65;4.40;;;11.90;99.90;;;;;;2098361;28;20024;-77
2023/05/31 04:08:08;;;;;;;8.27;4.80;;;12.10;99.90;;;;;;2101489;28;20457;-78
2023/05/31 04:09:09;;;;;;;10.07;4.70;;;12.50;99.90;;;;;;2096052;28;20120;-80
2023/05/31 04:10:09;;;;;;;9.77;4.38;;;12.90;99.90;;;;;;2079658;28;20464;-79
2023/05/31 04:11:10;;;;;;;7.68;4.30;;;13.40;99.90;;;;;;2079586;28;20100;-78
2023/05/31 04:12:11;;;;;;;7.40;4.30;;;13.80;99.90;;;;;;2109995;28;20060;-78
2023/05/31 04:13:11;;;;;;;9.10;4.53;;;14.30;99.90;;;;;;2096695;28;20051;-78
2023/05/31 04:14:12;;;;;;;7.28;4.43;;;14.70;99.90;;;;;;2095431;28;20067;-78
2023/05/31 04:15:13;;;;;;;6.80;4.10;;;15.00;99.90;;;;;;2088173;28;20028;-78
2023/05/31 04:16:14;;;;;;;8.35;4.10;;;15.40;99.90;;;;;;2095386;28;20048;-78
2023/05/31 04:17:15;;;;;;;10.18;4.15;;;15.70;99.90;;;;;;2094533;28;20051;-77
2023/05/31 04:18:16;;;;;;;5.85;4.07;;;16.00;99.90;;;;;;2096026;28;20415;-79
2023/05/31 04:19:16;;;;;;;5.93;4.10;;;16.20;99.90;;;;;;2096015;28;20115;-78
2023/05/31 04:20:18;;;;;;;6.70;4.00;;;16.40;99.90;;;;;;2096231;28;20028;-77
2023/05/31 04:21:19;;;;;;;9.90;4.32;;;16.70;99.90;;;;;;2094480;28;20083;-78
2023/05/31 04:22:22;;;;;;;7.80;4.38;;;16.90;99.90;;;;;;2104651;28;20032;-78
2023/05/31 04:23:22;;;;;;;8.00;3.83;;;17.10;98.50;;;;;;2104471;28;20031;-76
2023/05/31 04:24:24;;;;;;;6.78;4.15;;;17.20;97.50;;;;;;2104389;28;20027;-78
2023/05/31 04:25:24;;;;;;;6.22;3.97;;;17.40;96.30;;;;;;2096263;28;20055;-78
2023/05/31 04:26:25;;;;;;;6.43;3.90;;;17.50;95.50;;;;;;2101364;28;20077;-78
2023/05/31 04:27:27;;;;;;;7.40;4.10;;;17.70;94.10;;;;;;2096410;28;20059;-78
2023/05/31 04:28:29;;;;;;;7.13;4.20;;;17.80;93.30;;;;;;2102604;28;20043;-79
2023/05/31 04:29:30;;;;;;;7.60;4.10;;;17.90;92.30;;;;;;2096409;28;20025;-80
2023/05/31 04:30:33;;;;;;;5.82;3.58;;;18.00;91.80;;;;;;2096038;28;20033;-79
2023/05/31 04:31:35;;;;;;;5.63;3.95;;;18.20;91.20;;;;;;2104557;28;20078;-78
2023/05/31 04:32:36;;;;;;;4.70;3.72;;;18.40;90.20;;;;;;2113031;28;20452;-79
2023/05/31 04:33:38;;;;;;;6.95;4.10;;;18.50;89.20;;;;;;2096573;28;20513;-79
2023/05/31 04:34:42;;;;;;;5.85;4.03;;;18.60;87.50;;;;;;2105004;28;20724;-78
2023/05/31 04:35:43;;;;;;;7.30;4.00;;;18.70;86.70;;;;;;2104098;28;20039;-79
2023/05/31 04:36:44;;;;;;;7.32;4.20;;;18.80;85.80;;;;;;2102440;28;20028;-76
2023/05/31 04:37:44;;;;;;;6.45;3.85;;;18.90;84.80;;;;;;2096045;28;20024;-78
2023/05/31 04:38:47;;;;;;;5.40;4.10;;;19.00;83.60;;;;;;2104365;28;20032;-79
2023/05/31 04:39:49;;;;;;;6.85;3.90;;;19.10;82.70;;;;;;2104362;28;20032;-78
2023/05/31 04:40:51;;;;;;;5.45;3.78;;;19.20;82.30;;;;;;2104483;28;20027;-78
2023/05/31 04:41:51;;;;;;;8.88;4.03;;;19.30;81.20;;;;;;2097319;28;20835;-79
2023/05/31 04:42:52;;;;;;;7.97;3.85;;;19.50;79.90;;;;;;2095434;28;20111;-79
2023/05/31 04:44:04;;;;;;;6.53;4.07;;;19.50;79.20;;;;;;2097557;28;20462;-79
2023/05/31 04:45:07;;;;;;;6.13;4.13;;;19.60;78.90;;;;;;2096111;28;20059;-79
2023/05/31 04:46:13;;;;;;;10.88;4.95;;;19.60;78.30;;;;;;2096906;28;20036;-79
2023/05/31 04:47:15;;;;;;;8.15;4.57;;;19.50;77.00;;;;;;2086169;28;20017;-79
2023/05/31 04:48:16;;;;;;;10.88;5.70;;;19.40;77.60;;;;;;2095505;28;20025;-77
2023/05/31 04:49:16;;;;;;;9.13;5.00;;;19.40;77.70;;;;;;2095934;28;20380;-76
2023/05/31 04:50:17;;;;;;;7.68;4.47;;;19.50;77.50;;;;;;2104211;28;20041;-79
2023/05/31 04:51:18;;;;;;;10.88;4.78;;;19.50;76.60;;;;;;2102331;28;20070;-76
2023/05/31 04:52:18;;;;;;;8.77;4.40;;;19.60;76.00;;;;;;2096036;28;20435;-76
2023/05/31 04:53:19;;;;;;;11.60;5.00;;;19.50;75.40;;;;;;2095759;28;20024;-77
2023/05/31 04:54:20;;;;;;;10.02;4.95;;;19.60;74.60;;;;;;2104015;28;20024;-78
2023/05/31 04:55:21;;;;;;;8.82;4.63;;;19.60;74.50;;;;;;2104382;28;20027;-77
2023/05/31 04:56:22;;;;;;;12.75;5.20;;;19.50;74.20;;;;;;2093901;28;20032;-78
2023/05/31 04:57:22;;;;;;;9.95;4.72;;;19.30;74.30;;;;;;2096031;28;20070;-77
2023/05/31 04:58:24;;;;;;;9.05;5.05;;;19.30;75.20;;;;;;2104331;28;20024;-79
2023/05/31 04:59:25;;;;;;;9.18;4.82;;;19.30;74.60;;;;;;2104298;28;20162;-77
2023/05/31 05:00:25;;;;;;;8.07;4.70;;;19.30;74.50;;;;;;2104398;28;20523;-78
2023/05/31 05:01:39;;;;;;;6.97;4.60;;;19.30;74.50;;;;;;2094212;28;20094;-77
2023/05/31 05:02:44;;;;;;;10.52;5.10;;;19.40;74.20;;;;;;2097856;28;20032;-77
2023/05/31 05:03:45;;;;;;;9.57;4.93;;;19.50;73.90;;;;;;2095985;28;20115;-78
2023/05/31 05:04:47;;;;;;;9.27;4.88;;;19.50;73.70;;;;;;2085631;28;20025;-80
2023/05/31 05:05:50;;;;;;;7.28;4.45;;;19.70;73.30;;;;;;2088013;28;20056;-78
2023/05/31 05:06:52;;;;;;;10.48;4.80;;;19.80;72.70;;;;;;2095662;28;20514;-78
2023/05/31 05:07:53;;;;;;;9.98;4.88;;;19.90;72.50;;;;;;2101337;28;20040;-79
2023/05/31 05:08:55;;;;;;;8.50;4.40;;;20.10;71.70;;;;;;2103799;28;20503;-79
2023/05/31 05:09:56;;;;;;;6.55;4.25;;;20.20;71.30;;;;;;2093895;28;20031;-79
2023/05/31 05:10:57;;;;;;;7.38;4.18;;;20.40;70.60;;;;;;2095609;28;20484;-77
2023/05/31 05:11:57;;;;;;;8.85;4.35;;;20.60;69.90;;;;;;2095738;28;20423;-77
2023/05/31 05:12:58;;;;;;;6.55;4.03;;;20.80;69.00;;;;;;2104032;28;20252;-78
2023/05/31 05:13:59;;;;;;;7.20;4.50;;;21.00;68.10;;;;;;2103907;28;20091;-78
2023/05/31 05:15:02;;;;;;;8.18;4.25;;;21.10;67.70;;;;;;2089802;28;20383;-78
2023/05/31 05:16:04;;;;;;;7.90;4.25;;;21.20;67.20;;;;;;2096494;28;20063;-78
2023/05/31 05:17:05;;;;;;;8.43;4.07;;;21.40;66.10;;;;;;2095735;28;20515;-77
2023/05/31 05:18:07;;;;;;;7.35;4.40;;;21.40;65.70;;;;;;2095634;28;20442;-79
2023/05/31 05:19:09;;;;;;;11.93;4.63;;;21.20;65.60;;;;;;2095392;28;20601;-78
2023/05/31 05:20:12;;;;;;;7.80;4.13;;;21.20;65.70;;;;;;2093723;28;20016;-78
2023/05/31 05:21:14;;;;;;;9.00;4.50;;;21.30;65.40;;;;;;2103357;28;20039;-78
2023/05/31 05:22:16;;;;;;;7.18;4.38;;;21.40;64.90;;;;;;2095666;28;20094;-79
2023/05/31 05:23:16;;;;;;;9.23;4.78;;;21.40;64.60;;;;;;2095598;28;20134;-78
2023/05/31 05:24:17;;;;;;;9.10;4.53;;;21.50;64.80;;;;;;2095461;28;20024;-79
2023/05/31 05:25:18;;;;;;;11.55;5.03;;;21.50;64.30;;;;;;2091477;28;20056;-78